sensor_id;sensor_type;location;lat;lon;timestamp;pressure;altitude;pressure_sealevel;temperature;humidity
6938;BME280;40040;42.706;23.372;2023-05-21T00:01:14;147741.13;;;14.48;100.00
6938;BME280;40040;42.706;23.372;2023-05-21T00:03:41;147746.09;;;14.50;100.00
6938;BME280;40040;42.706;23.372;2023-05-21T00:06:10;147746.09;;;14.50;100.00
6938;BME280;40040;42.706;23.372;2023-05-21T00:08:37;147753.50;;;14.53;100.00
6938;BME280;40040;42.706;23.372;2023-05-21T00:11:04;147754.75;;;14.53;100.00
6938;BME280;40040;42.706;23.372;2023-05-21T00:13:33;147751.03;;;14.52;100.00
6938;BME280;40040;42.706;23.372;2023-05-21T00:15:59;147763.41;;;14.57;100.00
6938;BME280;40040;42.706;23.372;2023-05-21T00:18:26;147715.13;;;14.37;100.00
6938;BME280;40040;42.706;23.372;2023-05-21T00:20:56;147753.50;;;14.53;100.00
6938;BME280;40040;42.706;23.372;2023-05-21T00:23:23;147755.94;;;14.54;100.00
6938;BME280;40040;42.706;23.372;2023-05-21T00:25:51;147731.22;;;14.44;100.00
6938;BME280;40040;42.706;23.372;2023-05-21T00:28:17;147711.44;;;14.36;100.00
6938;BME280;40040;42.706;23.372;2023-05-21T00:30:46;147704.03;;;14.33;100.00
6938;BME280;40040;42.706;23.372;2023-05-21T00:33:12;147716.38;;;14.38;100.00
6938;BME280;40040;42.706;23.372;2023-05-21T00:35:40;147679.19;;;14.23;100.00
6938;BME280;40040;42.706;23.372;2023-05-21T00:38:07;147675.47;;;14.21;100.00
6938;BME280;40040;42.706;23.372;2023-05-21T00:40:34;147696.56;;;14.30;100.00
6938;BME280;40040;42.706;23.372;2023-05-21T00:43:01;147668.06;;;14.18;100.00
6938;BME280;40040;42.706;23.372;2023-05-21T00:45:28;147674.28;;;14.21;100.00
6938;BME280;40040;42.706;23.372;2023-05-21T00:47:56;147670.53;;;14.19;100.00
6938;BME280;40040;42.706;23.372;2023-05-21T00:50:23;147668.06;;;14.18;100.00
6938;BME280;40040;42.706;23.372;2023-05-21T00:52:50;147642.09;;;14.08;100.00
6938;BME280;40040;42.706;23.372;2023-05-21T00:55:18;147675.47;;;14.21;100.00
6938;BME280;40040;42.706;23.372;2023-05-21T00:57:44;147654.47;;;14.13;100.00
6938;BME280;40040;42.706;23.372;2023-05-21T01:00:13;147629.72;;;14.03;100.00
6938;BME280;40040;42.706;23.372;2023-05-21T01:02:40;147644.53;;;14.09;100.00
6938;BME280;40040;42.706;23.372;2023-05-21T01:05:10;147623.53;;;14.00;100.00
6938;BME280;40040;42.706;23.372;2023-05-21T01:07:38;147612.41;;;13.96;100.00
6938;BME280;40040;42.706;23.372;2023-05-21T01:10:07;147603.75;;;13.92;100.00
6938;BME280;40040;42.706;23.372;2023-05-21T01:12:37;147624.78;;;14.01;100.00
6938;BME280;40040;42.706;23.372;2023-05-21T01:15:06;147619.81;;;13.99;100.00
6938;BME280;40040;42.706;23.372;2023-05-21T01:17:34;147630.97;;;14.03;100.00
6938;BME280;40040;42.706;23.372;2023-05-21T01:20:01;147605.00;;;13.93;100.00
6938;BME280;40040;42.706;23.372;2023-05-21T01:22:35;147609.91;;;13.95;100.00
6938;BME280;40040;42.706;23.372;2023-05-21T01:25:06;147629.72;;;14.03;100.00
6938;BME280;40040;42.706;23.372;2023-05-21T01:27:33;147627.22;;;14.02;100.00
6938;BME280;40040;42.706;23.372;2023-05-21T01:29:59;147628.47;;;14.02;100.00
6938;BME280;40040;42.706;23.372;2023-05-21T01:32:32;147616.09;;;13.97;100.00
6938;BME280;40040;42.706;23.372;2023-05-21T01:35:04;147609.91;;;13.95;100.00
6938;BME280;40040;42.706;23.372;2023-05-21T01:37:35;147597.53;;;13.90;100.00
6938;BME280;40040;42.706;23.372;2023-05-21T01:40:09;147598.78;;;13.90;100.00
6938;BME280;40040;42.706;23.372;2023-05-21T01:42:38;147605.00;;;13.93;100.00
6938;BME280;40040;42.706;23.372;2023-05-21T01:45:08;147601.28;;;13.91;100.00
6938;BME280;40040;42.706;23.372;2023-05-21T01:47:36;147602.50;;;13.92;100.00
6938;BME280;40040;42.706;23.372;2023-05-21T01:50:05;147596.34;;;13.89;100.00
6938;BME280;40040;42.706;23.372;2023-05-21T01:52:32;147606.19;;;13.93;100.00
6938;BME280;40040;42.706;23.372;2023-05-21T01:55:00;147611.16;;;13.95;100.00
6938;BME280;40040;42.706;23.372;2023-05-21T01:57:28;147623.53;;;14.00;100.00
6938;BME280;40040;42.706;23.372;2023-05-21T01:59:56;147637.13;;;14.06;100.00
6938;BME280;40040;42.706;23.372;2023-05-21T02:02:23;147647.03;;;14.10;100.00
6938;BME280;40040;42.706;23.372;2023-05-21T02:04:49;147655.72;;;14.13;100.00
6938;BME280;40040;42.706;23.372;2023-05-21T02:07:16;147652.00;;;14.12;100.00
6938;BME280;40040;42.706;23.372;2023-05-21T02:09:44;147639.63;;;14.07;100.00
6938;BME280;40040;42.706;23.372;2023-05-21T02:12:11;147638.38;;;14.06;100.00
6938;BME280;40040;42.706;23.372;2023-05-21T02:14:39;147637.13;;;14.06;100.00
6938;BME280;40040;42.706;23.372;2023-05-21T02:17:05;147629.72;;;14.03;100.00
6938;BME280;40040;42.706;23.372;2023-05-21T02:19:33;147609.91;;;13.95;100.00
6938;BME280;40040;42.706;23.372;2023-05-21T02:22:00;147617.38;;;13.98;100.00
6938;BME280;40040;42.706;23.372;2023-05-21T02:24:27;147607.44;;;13.94;100.00
6938;BME280;40040;42.706;23.372;2023-05-21T02:26:53;147567.88;;;13.78;100.00
6938;BME280;40040;42.706;23.372;2023-05-21T02:29:20;147574.06;;;13.80;100.00
6938;BME280;40040;42.706;23.372;2023-05-21T02:31:49;147548.09;;;13.70;100.00
6938;BME280;40040;42.706;23.372;2023-05-21T02:34:15;147574.06;;;13.80;100.00
6938;BME280;40040;42.706;23.372;2023-05-21T02:36:45;147575.31;;;13.81;100.00
6938;BME280;40040;42.706;23.372;2023-05-21T02:39:12;147570.38;;;13.79;100.00
6938;BME280;40040;42.706;23.372;2023-05-21T02:41:39;147549.34;;;13.70;100.00
6938;BME280;40040;42.706;23.372;2023-05-21T02:44:06;147518.41;;;13.57;100.00
6938;BME280;40040;42.706;23.372;2023-05-21T02:46:33;147523.38;;;13.60;100.00
6938;BME280;40040;42.706;23.372;2023-05-21T02:49:01;147523.38;;;13.60;100.00
6938;BME280;40040;42.706;23.372;2023-05-21T02:51:28;147473.88;;;13.39;100.00
6938;BME280;40040;42.706;23.372;2023-05-21T02:53:55;147492.44;;;13.47;100.00
6938;BME280;40040;42.706;23.372;2023-05-21T02:56:22;147506.06;;;13.52;100.00
6938;BME280;40040;42.706;23.372;2023-05-21T02:58:49;147483.78;;;13.43;100.00
6938;BME280;40040;42.706;23.372;2023-05-21T03:01:17;147473.88;;;13.39;100.00
6938;BME280;40040;42.706;23.372;2023-05-21T03:03:44;147466.47;;;13.36;100.00
6938;BME280;40040;42.706;23.372;2023-05-21T03:06:12;147439.25;;;13.25;100.00
6938;BME280;40040;42.706;23.372;2023-05-21T03:08:40;147452.88;;;13.31;100.00
6938;BME280;40040;42.706;23.372;2023-05-21T03:11:07;147461.53;;;13.34;100.00
6938;BME280;40040;42.706;23.372;2023-05-21T03:13:34;147481.28;;;13.42;100.00
6938;BME280;40040;42.706;23.372;2023-05-21T03:16:01;147488.75;;;13.45;100.00
6938;BME280;40040;42.706;23.372;2023-05-21T03:18:27;147486.25;;;13.44;100.00
6938;BME280;40040;42.706;23.372;2023-05-21T03:20:54;147498.59;;;13.49;100.00
6938;BME280;40040;42.706;23.372;2023-05-21T03:23:25;147513.47;;;13.55;100.00
6938;BME280;40040;42.706;23.372;2023-05-21T03:25:51;147511.00;;;13.54;100.00
6938;BME280;40040;42.706;23.372;2023-05-21T03:28:18;147513.47;;;13.55;100.00
6938;BME280;40040;42.706;23.372;2023-05-21T03:30:45;147512.22;;;13.55;100.00
6938;BME280;40040;42.706;23.372;2023-05-21T03:33:14;147498.59;;;13.49;100.00
6938;BME280;40040;42.706;23.372;2023-05-21T03:35:41;147499.84;;;13.50;100.00
6938;BME280;40040;42.706;23.372;2023-05-21T03:38:07;147518.41;;;13.57;100.00
6938;BME280;40040;42.706;23.372;2023-05-21T03:40:35;147523.38;;;13.60;100.00
6938;BME280;40040;42.706;23.372;2023-05-21T03:43:02;147530.78;;;13.63;100.00
6938;BME280;40040;42.706;23.372;2023-05-21T03:45:29;147525.81;;;13.61;100.00
6938;BME280;40040;42.706;23.372;2023-05-21T03:47:56;147532.03;;;13.63;100.00
6938;BME280;40040;42.706;23.372;2023-05-21T03:50:22;147492.44;;;13.47;100.00
6938;BME280;40040;42.706;23.372;2023-05-21T03:52:49;147545.59;;;13.69;100.00
6938;BME280;40040;42.706;23.372;2023-05-21T03:55:16;147562.91;;;13.76;100.00
6938;BME280;40040;42.706;23.372;2023-05-21T03:57:44;147549.34;;;13.70;100.00
6938;BME280;40040;42.706;23.372;2023-05-21T04:00:11;147481.28;;;13.42;100.00
6938;BME280;40040;42.706;23.372;2023-05-21T04:02:38;147586.44;;;13.85;100.00
6938;BME280;40040;42.706;23.372;2023-05-21T04:05:06;147597.53;;;13.90;100.00
6938;BME280;40040;42.706;23.372;2023-05-21T04:07:33;147607.44;;;13.94;100.00
6938;BME280;40040;42.706;23.372;2023-05-21T04:10:03;147626.03;;;14.01;100.00
6938;BME280;40040;42.706;23.372;2023-05-21T04:12:30;147644.53;;;14.09;100.00
6938;BME280;40040;42.706;23.372;2023-05-21T04:14:58;147659.41;;;14.15;100.00
6938;BME280;40040;42.706;23.372;2023-05-21T04:17:27;147676.72;;;14.22;100.00
6938;BME280;40040;42.706;23.372;2023-05-21T04:19:54;147680.44;;;14.23;100.00
6938;BME280;40040;42.706;23.372;2023-05-21T04:22:20;147686.69;;;14.26;100.00
6938;BME280;40040;42.706;23.372;2023-05-21T04:24:51;147694.09;;;14.29;100.00
6938;BME280;40040;42.706;23.372;2023-05-21T04:27:19;147699.06;;;14.31;100.00
6938;BME280;40040;42.706;23.372;2023-05-21T04:29:48;147716.38;;;14.38;100.00
6938;BME280;40040;42.706;23.372;2023-05-21T04:32:16;147726.25;;;14.42;100.00
6938;BME280;40040;42.706;23.372;2023-05-21T04:34:43;147753.50;;;14.53;100.00
6938;BME280;40040;42.706;23.372;2023-05-21T04:37:10;147762.16;;;14.56;100.00
6938;BME280;40040;42.706;23.372;2023-05-21T04:39:36;147780.75;;;14.64;100.00
6938;BME280;40040;42.706;23.372;2023-05-21T04:42:05;147796.81;;;14.71;100.00
6938;BME280;40040;42.706;23.372;2023-05-21T04:44:35;147810.44;;;14.76;100.00
6938;BME280;40040;42.706;23.372;2023-05-21T04:47:02;147821.56;;;14.81;100.00
6938;BME280;40040;42.706;23.372;2023-05-21T04:49:31;147832.72;;;14.85;100.00
6938;BME280;40040;42.706;23.372;2023-05-21T04:51:59;147819.09;;;14.80;100.00
6938;BME280;40040;42.706;23.372;2023-05-21T04:54:26;147854.97;;;14.94;100.00
6938;BME280;40040;42.706;23.372;2023-05-21T04:56:53;147847.56;;;14.91;100.00
6938;BME280;40040;42.706;23.372;2023-05-21T04:59:20;147887.16;;;15.07;100.00
6938;BME280;40040;42.706;23.372;2023-05-21T05:01:47;147894.59;;;15.10;100.00
6938;BME280;40040;42.706;23.372;2023-05-21T05:04:13;147880.97;;;15.05;100.00
6938;BME280;40040;42.706;23.372;2023-05-21T05:06:42;147924.31;;;15.22;100.00
6938;BME280;40040;42.706;23.372;2023-05-21T05:09:08;147968.94;;;15.40;100.00
6938;BME280;40040;42.706;23.372;2023-05-21T05:11:35;147993.69;;;15.50;100.00
6938;BME280;40040;42.706;23.372;2023-05-21T05:14:02;148011.03;;;15.57;100.00
6938;BME280;40040;42.706;23.372;2023-05-21T05:16:29;148020.97;;;15.61;100.00
6938;BME280;40040;42.706;23.372;2023-05-21T05:18:55;148035.78;;;15.67;100.00
6938;BME280;40040;42.706;23.372;2023-05-21T05:21:22;148049.44;;;15.73;100.00
6938;BME280;40040;42.706;23.372;2023-05-21T05:23:50;148050.69;;;15.73;100.00
6938;BME280;40040;42.706;23.372;2023-05-21T05:26:18;148058.09;;;15.76;100.00
6938;BME280;40040;42.706;23.372;2023-05-21T05:28:46;148025.91;;;15.63;100.00
6938;BME280;40040;42.706;23.372;2023-05-21T05:31:12;148050.69;;;15.73;100.00
6938;BME280;40040;42.706;23.372;2023-05-21T05:33:39;148064.31;;;15.79;100.00
6938;BME280;40040;42.706;23.372;2023-05-21T05:36:06;148056.84;;;15.76;100.00
6938;BME280;40040;42.706;23.372;2023-05-21T05:38:33;148065.50;;;15.79;100.00
6938;BME280;40040;42.706;23.372;2023-05-21T05:41:01;148090.31;;;15.90;100.00
6938;BME280;40040;42.706;23.372;2023-05-21T05:43:28;148090.31;;;15.90;100.00
6938;BME280;40040;42.706;23.372;2023-05-21T05:45:55;148102.72;;;15.95;100.00
6938;BME280;40040;42.706;23.372;2023-05-21T05:48:22;148102.72;;;15.95;100.00
6938;BME280;40040;42.706;23.372;2023-05-21T05:50:48;148128.72;;;16.05;100.00
6938;BME280;40040;42.706;23.372;2023-05-21T05:53:19;148144.81;;;16.12;100.00
6938;BME280;40040;42.706;23.372;2023-05-21T05:55:45;148154.75;;;16.16;100.00
6938;BME280;40040;42.706;23.372;2023-05-21T05:58:14;148175.81;;;16.24;100.00
6938;BME280;40040;42.706;23.372;2023-05-21T06:00:41;148210.50;;;16.38;100.00
6938;BME280;40040;42.706;23.372;2023-05-21T06:03:08;148258.91;;;16.58;100.00
6938;BME280;40040;42.706;23.372;2023-05-21T06:05:36;148301.03;;;16.75;100.00
6938;BME280;40040;42.706;23.372;2023-05-21T06:08:04;148372.91;;;17.04;100.00
6938;BME280;40040;42.706;23.372;2023-05-21T06:10:30;148374.16;;;17.05;100.00
6938;BME280;40040;42.706;23.372;2023-05-21T06:12:57;148437.38;;;17.30;100.00
6938;BME280;40040;42.706;23.372;2023-05-21T06:15:25;148489.50;;;17.51;100.00
6938;BME280;40040;42.706;23.372;2023-05-21T06:17:52;148524.25;;;17.65;100.00
6938;BME280;40040;42.706;23.372;2023-05-21T06:20:19;148581.31;;;17.88;100.00
6938;BME280;40040;42.706;23.372;2023-05-21T06:22:46;148650.75;;;18.17;100.00
6938;BME280;40040;42.706;23.372;2023-05-21T06:25:12;148650.75;;;18.17;100.00
6938;BME280;40040;42.706;23.372;2023-05-21T06:27:40;148661.94;;;18.21;100.00
6938;BME280;40040;42.706;23.372;2023-05-21T06:30:07;148663.19;;;18.22;100.00
6938;BME280;40040;42.706;23.372;2023-05-21T06:32:36;148659.44;;;18.20;100.00
6938;BME280;40040;42.706;23.372;2023-05-21T06:35:03;148705.38;;;18.39;100.00
6938;BME280;40040;42.706;23.372;2023-05-21T06:37:30;148765.00;;;18.63;100.00
6938;BME280;40040;42.706;23.372;2023-05-21T06:39:57;148814.63;;;18.83;100.00
6938;BME280;40040;42.706;23.372;2023-05-21T06:42:24;148866.78;;;19.04;100.00
6938;BME280;40040;42.706;23.372;2023-05-21T06:44:51;148886.66;;;19.12;100.00
6938;BME280;40040;42.706;23.372;2023-05-21T06:47:17;148962.44;;;19.43;100.00
6938;BME280;40040;42.706;23.372;2023-05-21T06:49:45;148991.03;;;19.54;100.00
6938;BME280;40040;42.706;23.372;2023-05-21T06:52:12;149033.25;;;19.71;100.00
6938;BME280;40040;42.706;23.372;2023-05-21T06:54:39;149035.72;;;19.72;100.00
6938;BME280;40040;42.706;23.372;2023-05-21T06:57:06;149063.06;;;19.83;100.00
6938;BME280;40040;42.706;23.372;2023-05-21T06:59:33;148999.72;;;19.58;93.82
6938;BME280;40040;42.706;23.372;2023-05-21T07:02:00;149020.84;;;19.66;93.59
6938;BME280;40040;42.706;23.372;2023-05-21T07:04:27;148967.41;;;19.45;96.22
6938;BME280;40040;42.706;23.372;2023-05-21T07:06:55;148984.81;;;19.52;96.35
6938;BME280;40040;42.706;23.372;2023-05-21T07:09:22;148953.75;;;19.39;97.30
6938;BME280;40040;42.706;23.372;2023-05-21T07:11:49;148993.50;;;19.55;96.79
6938;BME280;40040;42.706;23.372;2023-05-21T07:14:17;149045.66;;;19.76;97.72
6938;BME280;40040;42.706;23.372;2023-05-21T07:16:44;149100.31;;;19.98;96.32
6938;BME280;40040;42.706;23.372;2023-05-21T07:19:10;149146.38;;;20.17;96.98
6938;BME280;40040;42.706;23.372;2023-05-21T07:21:37;149199.75;;;20.39;93.56
6938;BME280;40040;42.706;23.372;2023-05-21T07:24:05;149232.09;;;20.52;93.32
6938;BME280;40040;42.706;23.372;2023-05-21T07:26:32;149281.78;;;20.72;91.16
6938;BME280;40040;42.706;23.372;2023-05-21T07:28:59;149306.63;;;20.82;91.52
6938;BME280;40040;42.706;23.372;2023-05-21T07:31:26;149324.03;;;20.89;88.66
6938;BME280;40040;42.706;23.372;2023-05-21T07:33:53;149324.03;;;20.89;89.51
6938;BME280;40040;42.706;23.372;2023-05-21T07:36:20;149256.94;;;20.62;88.56
6938;BME280;40040;42.706;23.372;2023-05-21T07:38:46;149289.22;;;20.75;90.29
6938;BME280;40040;42.706;23.372;2023-05-21T07:41:15;149305.44;;;20.81;89.55
6938;BME280;40040;42.706;23.372;2023-05-21T07:43:42;149322.84;;;20.88;90.02
6938;BME280;40040;42.706;23.372;2023-05-21T07:46:08;149375.09;;;21.09;90.62
6938;BME280;40040;42.706;23.372;2023-05-21T07:48:36;149453.41;;;21.41;92.95
6938;BME280;40040;42.706;23.372;2023-05-21T07:51:03;149533.00;;;21.73;88.01
6938;BME280;40040;42.706;23.372;2023-05-21T07:53:30;149587.78;;;21.95;76.96
6938;BME280;40040;42.706;23.372;2023-05-21T07:55:58;149652.47;;;22.21;73.31
6938;BME280;40040;42.706;23.372;2023-05-21T07:58:26;149645.03;;;22.18;67.35
6938;BME280;40040;42.706;23.372;2023-05-21T08:00:53;149657.47;;;22.23;63.41
6938;BME280;40040;42.706;23.372;2023-05-21T08:03:20;149674.88;;;22.30;63.23
6938;BME280;40040;42.706;23.372;2023-05-21T08:05:47;149697.28;;;22.40;63.42
6938;BME280;40040;42.706;23.372;2023-05-21T08:08:15;149640.03;;;22.16;63.69
6938;BME280;40040;42.706;23.372;2023-05-21T08:10:41;149603.97;;;22.02;63.53
6938;BME280;40040;42.706;23.372;2023-05-21T08:13:10;149597.75;;;21.99;64.40
6938;BME280;40040;42.706;23.372;2023-05-21T08:15:38;149658.72;;;22.24;62.80
6938;BME280;40040;42.706;23.372;2023-05-21T08:18:05;149681.13;;;22.33;65.17
6938;BME280;40040;42.706;23.372;2023-05-21T08:20:31;149702.28;;;22.42;63.76
6938;BME280;40040;42.706;23.372;2023-05-21T08:22:59;149667.44;;;22.27;62.41
6938;BME280;40040;42.706;23.372;2023-05-21T08:25:26;149610.19;;;22.04;61.06
6938;BME280;40040;42.706;23.372;2023-05-21T08:27:53;149572.88;;;21.89;62.03
6938;BME280;40040;42.706;23.372;2023-05-21T08:30:19;149533.00;;;21.73;61.91
6938;BME280;40040;42.706;23.372;2023-05-21T08:32:48;149450.94;;;21.40;63.20
6938;BME280;40040;42.706;23.372;2023-05-21T08:35:15;149479.50;;;21.52;63.70
6938;BME280;40040;42.706;23.372;2023-05-21T08:37:41;149485.75;;;21.54;61.97
6938;BME280;40040;42.706;23.372;2023-05-21T08:40:09;149480.78;;;21.52;62.16
6938;BME280;40040;42.706;23.372;2023-05-21T08:42:42;149480.78;;;21.52;61.50
6938;BME280;40040;42.706;23.372;2023-05-21T08:45:11;149403.69;;;21.21;62.06
6938;BME280;40040;42.706;23.372;2023-05-21T08:47:40;149516.84;;;21.67;61.87
6938;BME280;40040;42.706;23.372;2023-05-21T08:50:14;149565.38;;;21.86;61.56
6938;BME280;40040;42.706;23.372;2023-05-21T08:52:42;149655.00;;;22.22;60.19
6938;BME280;40040;42.706;23.372;2023-05-21T08:55:09;149769.50;;;22.69;62.06
6938;BME280;40040;42.706;23.372;2023-05-21T08:57:36;149804.34;;;22.83;58.80
6938;BME280;40040;42.706;23.372;2023-05-21T09:00:07;149855.38;;;23.03;59.96
6938;BME280;40040;42.706;23.372;2023-05-21T09:02:34;149921.44;;;23.30;59.76
6938;BME280;40040;42.706;23.372;2023-05-21T09:05:05;149971.25;;;23.50;57.92
6938;BME280;40040;42.706;23.372;2023-05-21T09:07:38;149950.06;;;23.41;58.31
6938;BME280;40040;42.706;23.372;2023-05-21T09:10:11;150011.09;;;23.66;57.05
6938;BME280;40040;42.706;23.372;2023-05-21T09:12:39;149963.75;;;23.47;56.92
6938;BME280;40040;42.706;23.372;2023-05-21T09:15:06;149971.25;;;23.50;57.43
6938;BME280;40040;42.706;23.372;2023-05-21T09:17:33;149978.72;;;23.53;56.42
6938;BME280;40040;42.706;23.372;2023-05-21T09:20:07;149967.50;;;23.49;57.39
6938;BME280;40040;42.706;23.372;2023-05-21T09:22:39;149918.97;;;23.29;57.86
6938;BME280;40040;42.706;23.372;2023-05-21T09:25:07;149933.88;;;23.35;58.31
6938;BME280;40040;42.706;23.372;2023-05-21T09:27:35;149864.09;;;23.07;59.47
6938;BME280;40040;42.706;23.372;2023-05-21T09:30:02;149958.78;;;23.45;59.48
6938;BME280;40040;42.706;23.372;2023-05-21T09:32:29;149987.44;;;23.57;59.76
6938;BME280;40040;42.706;23.372;2023-05-21T09:34:56;149913.94;;;23.27;57.20
6938;BME280;40040;42.706;23.372;2023-05-21T09:37:23;149881.53;;;23.14;58.11
6938;BME280;40040;42.706;23.372;2023-05-21T09:39:52;149887.78;;;23.16;59.78
6938;BME280;40040;42.706;23.372;2023-05-21T09:42:20;149886.50;;;23.16;56.75
6938;BME280;40040;42.706;23.372;2023-05-21T09:44:47;149901.47;;;23.22;56.06
6938;BME280;40040;42.706;23.372;2023-05-21T09:47:18;149933.88;;;23.35;55.26
6938;BME280;40040;42.706;23.372;2023-05-21T09:49:47;149993.63;;;23.59;54.95
6938;BME280;40040;42.706;23.372;2023-05-21T09:52:22;150053.47;;;23.83;53.26
6938;BME280;40040;42.706;23.372;2023-05-21T09:54:50;150083.34;;;23.95;51.14
6938;BME280;40040;42.706;23.372;2023-05-21T09:57:23;150068.38;;;23.89;51.95
6938;BME280;40040;42.706;23.372;2023-05-21T09:59:50;150151.91;;;24.23;53.27
6938;BME280;40040;42.706;23.372;2023-05-21T10:02:19;150232.88;;;24.56;52.52
6938;BME280;40040;42.706;23.372;2023-05-21T10:04:48;150295.28;;;24.81;50.69
6938;BME280;40040;42.706;23.372;2023-05-21T10:07:17;150351.34;;;25.03;51.75
6938;BME280;40040;42.706;23.372;2023-05-21T10:09:45;150302.72;;;24.84;49.07
6938;BME280;40040;42.706;23.372;2023-05-21T10:12:13;150282.81;;;24.76;50.43
6938;BME280;40040;42.706;23.372;2023-05-21T10:14:46;150217.97;;;24.49;49.12
6938;BME280;40040;42.706;23.372;2023-05-21T10:17:16;150113.28;;;24.07;50.71
6938;BME280;40040;42.706;23.372;2023-05-21T10:19:45;150087.09;;;23.97;51.09
6938;BME280;40040;42.706;23.372;2023-05-21T10:22:12;150080.84;;;23.94;52.12
6938;BME280;40040;42.706;23.372;2023-05-21T10:24:42;150019.78;;;23.70;51.92
6938;BME280;40040;42.706;23.372;2023-05-21T10:27:10;150029.78;;;23.74;51.81
6938;BME280;40040;42.706;23.372;2023-05-21T10:29:39;150055.94;;;23.84;50.28
6938;BME280;40040;42.706;23.372;2023-05-21T10:32:11;149977.47;;;23.53;51.74
6938;BME280;40040;42.706;23.372;2023-05-21T10:34:38;149966.28;;;23.48;51.29
6938;BME280;40040;42.706;23.372;2023-05-21T10:37:07;149943.84;;;23.39;51.20
6938;BME280;40040;42.706;23.372;2023-05-21T10:39:35;149889.03;;;23.17;53.57
6938;BME280;40040;42.706;23.372;2023-05-21T10:42:15;149872.81;;;23.10;53.57
6938;BME280;40040;42.706;23.372;2023-05-21T10:44:51;149757.06;;;22.64;55.83
6938;BME280;40040;42.706;23.372;2023-05-21T10:47:38;149687.31;;;22.35;56.00
6938;BME280;40040;42.706;23.372;2023-05-21T10:53:06;149640.03;;;22.16;55.56
6938;BME280;40040;42.706;23.372;2023-05-21T10:55:46;149699.75;;;22.41;56.12
6938;BME280;40040;42.706;23.372;2023-05-21T11:01:13;149732.13;;;22.54;59.51
6938;BME280;40040;42.706;23.372;2023-05-21T11:03:42;149723.41;;;22.50;56.72
6938;BME280;40040;42.706;23.372;2023-05-21T11:06:09;149759.56;;;22.65;56.74
6938;BME280;40040;42.706;23.372;2023-05-21T11:08:37;149729.63;;;22.53;57.02
6938;BME280;40040;42.706;23.372;2023-05-21T11:11:04;149713.44;;;22.46;58.27
6938;BME280;40040;42.706;23.372;2023-05-21T11:13:44;149645.03;;;22.18;58.23
6938;BME280;40040;42.706;23.372;2023-05-21T11:16:13;149602.72;;;22.01;57.55
6938;BME280;40040;42.706;23.372;2023-05-21T11:18:58;149692.31;;;22.38;58.75
6938;BME280;40040;42.706;23.372;2023-05-21T11:21:28;149753.34;;;22.62;58.51
6938;BME280;40040;42.706;23.372;2023-05-21T11:23:58;149727.16;;;22.52;57.60
6938;BME280;40040;42.706;23.372;2023-05-21T11:26:28;149744.63;;;22.59;58.50
6938;BME280;40040;42.706;23.372;2023-05-21T11:29:07;149757.06;;;22.64;57.83
6938;BME280;40040;42.706;23.372;2023-05-21T11:31:35;149710.97;;;22.45;58.17
6938;BME280;40040;42.706;23.372;2023-05-21T11:34:11;149699.75;;;22.41;58.12
6938;BME280;40040;42.706;23.372;2023-05-21T11:36:38;149692.31;;;22.38;59.61
6938;BME280;40040;42.706;23.372;2023-05-21T11:39:09;149683.59;;;22.34;59.68
6938;BME280;40040;42.706;23.372;2023-05-21T11:41:52;149669.91;;;22.28;58.13
6938;BME280;40040;42.706;23.372;2023-05-21T11:44:22;149677.41;;;22.31;57.82
6938;BME280;40040;42.706;23.372;2023-05-21T11:47:04;149622.63;;;22.09;59.07
6938;BME280;40040;42.706;23.372;2023-05-21T11:49:32;149648.75;;;22.20;59.81
6938;BME280;40040;42.706;23.372;2023-05-21T11:52:00;149590.28;;;21.96;59.20
6938;BME280;40040;42.706;23.372;2023-05-21T11:54:27;149589.03;;;21.96;59.81
6938;BME280;40040;42.706;23.372;2023-05-21T11:57:05;149622.63;;;22.09;60.88
6938;BME280;40040;42.706;23.372;2023-05-21T11:59:32;149620.16;;;22.08;60.61
6938;BME280;40040;42.706;23.372;2023-05-21T12:01:59;149618.88;;;22.08;61.05
6938;BME280;40040;42.706;23.372;2023-05-21T12:04:28;149589.03;;;21.96;62.05
6938;BME280;40040;42.706;23.372;2023-05-21T12:06:56;149565.38;;;21.86;64.62
6938;BME280;40040;42.706;23.372;2023-05-21T12:09:23;149546.75;;;21.79;62.11
6938;BME280;40040;42.706;23.372;2023-05-21T12:11:50;149511.88;;;21.65;64.41
6938;BME280;40040;42.706;23.372;2023-05-21T12:14:17;149485.75;;;21.54;64.03
6938;BME280;40040;42.706;23.372;2023-05-21T12:16:44;149450.94;;;21.40;65.28
6938;BME280;40040;42.706;23.372;2023-05-21T12:19:11;149428.53;;;21.31;66.33
6938;BME280;40040;42.706;23.372;2023-05-21T12:21:38;149401.16;;;21.20;66.94
6938;BME280;40040;42.706;23.372;2023-05-21T12:24:06;149438.50;;;21.35;66.96
6938;BME280;40040;42.706;23.372;2023-05-21T12:26:33;149421.09;;;21.28;67.77
6938;BME280;40040;42.706;23.372;2023-05-21T12:29:01;149429.78;;;21.32;68.27
6938;BME280;40040;42.706;23.372;2023-05-21T12:31:30;149416.13;;;21.26;68.04
6938;BME280;40040;42.706;23.372;2023-05-21T12:33:57;149429.78;;;21.32;68.85
6938;BME280;40040;42.706;23.372;2023-05-21T12:36:26;149418.56;;;21.27;68.32
6938;BME280;40040;42.706;23.372;2023-05-21T12:38:53;149399.97;;;21.19;68.08
6938;BME280;40040;42.706;23.372;2023-05-21T12:41:22;149398.69;;;21.19;68.24
6938;BME280;40040;42.706;23.372;2023-05-21T12:43:49;149392.50;;;21.16;69.19
6938;BME280;40040;42.706;23.372;2023-05-21T12:46:16;149455.91;;;21.42;69.52
6938;BME280;40040;42.706;23.372;2023-05-21T12:48:52;149490.75;;;21.56;69.02
6938;BME280;40040;42.706;23.372;2023-05-21T12:51:19;149478.31;;;21.51;67.58
6938;BME280;40040;42.706;23.372;2023-05-21T12:53:46;149479.50;;;21.52;68.16
6938;BME280;40040;42.706;23.372;2023-05-21T12:56:14;149516.84;;;21.67;65.96